Time;durP1;ratioP1;P1;durP2;ratioP2;P2;SDS_P1;SDS_P2;PMS_P1;PMS_P2;Temp;Humidity;BMP_temperature;BMP_pressure;BME280_temperature;BME280_humidity;BME280_pressure;Samples;Min_cycle;Max_cycle;Signal;HPM_P1;HPM_P2
2021/01/29 00:00:24;;;;;;;7.27;4.63;;;;;;;-3.40;79.68;98708.99;103085;1113;84931;-65
2021/01/29 00:02:42;;;;;;;7.93;3.93;;;;;;;-3.45;80.19;98713.03;103075;1112;78006;-75
2021/01/29 00:04:49;;;;;;;7.90;3.90;;;;;;;-3.48;79.86;98714.16;103058;1111;64416;-65
2021/01/29 00:06:53;;;;;;;10.73;4.40;;;;;;;-3.47;79.92;98699.16;103029;1113;81993;-65
2021/01/29 00:08:58;;;;;;;12.37;5.50;;;;;;;-3.48;80.12;98700.95;103005;1112;73156;-64
2021/01/29 00:11:06;;;;;;;12.40;4.90;;;;;;;-3.48;80.32;98698.31;103016;1112;86157;-66
2021/01/29 00:13:14;;;;;;;11.37;5.30;;;;;;;-3.48;80.54;98703.59;103020;1112;78183;-66
2021/01/29 00:15:22;;;;;;;15.70;6.05;;;;;;;-3.47;80.24;98704.44;103107;1112;64281;-66
2021/01/29 00:17:27;;;;;;;14.27;5.47;;;;;;;-3.50;79.83;98695.00;103058;1112;81952;-64
2021/01/29 00:19:32;;;;;;;12.17;5.67;;;;;;;-3.50;79.74;98692.36;103056;1112;71518;-69
2021/01/29 00:21:37;;;;;;;12.17;5.70;;;;;;;-3.57;80.03;98692.09;103025;1106;84288;-69
2021/01/29 00:23:42;;;;;;;13.30;6.00;;;;;;;-3.57;80.32;98693.89;103027;1113;78523;-66
2021/01/29 00:25:51;;;;;;;10.23;5.10;;;;;;;-3.55;79.93;98691.96;103150;1112;64162;-66
2021/01/29 00:27:56;;;;;;;12.47;6.40;;;;;;;-3.58;79.96;98689.61;103022;1112;82777;-64
2021/01/29 00:30:00;;;;;;;11.90;5.95;;;;;;;-3.54;79.89;98690.97;102997;1113;73164;-65
2021/01/29 00:32:06;;;;;;;15.77;7.00;;;;;;;-3.56;80.46;98695.56;102995;1113;85170;-66
2021/01/29 00:34:14;;;;;;;13.50;6.20;;;;;;;-3.54;80.33;98688.33;103043;1112;77594;-65
2021/01/29 00:36:19;;;;;;;13.20;6.67;;;;;;;-3.57;80.19;98695.72;103032;1112;64171;-65
2021/01/29 00:38:27;;;;;;;13.80;7.40;;;;;;;-3.61;79.98;98687.25;102998;1113;82395;-67
2021/01/29 00:40:36;;;;;;;14.20;6.30;;;;;;;-3.67;80.13;98690.45;103043;1112;71345;-67
2021/01/29 00:42:42;;;;;;;17.73;7.30;;;;;;;-3.76;80.17;98686.84;103037;1113;85287;-68
2021/01/29 00:44:47;;;;;;;13.60;7.40;;;;;;;-3.76;79.96;98683.38;103060;1112;77597;-67
2021/01/29 00:46:55;;;;;;;18.07;7.10;;;;;;;-3.77;80.35;98690.48;103025;1113;64192;-68
2021/01/29 00:49:02;;;;;;;15.80;7.53;;;;;;;-3.76;79.95;98686.84;103045;1113;82552;-65
2021/01/29 00:51:07;;;;;;;17.50;7.77;;;;;;;-3.79;80.23;98683.69;103118;1113;72568;-66
2021/01/29 00:53:12;;;;;;;17.70;8.30;;;;;;;-3.84;80.25;98685.88;103076;1111;85811;-65
2021/01/29 00:55:19;;;;;;;18.90;8.53;;;;;;;-3.83;80.02;98691.03;103059;1113;77667;-68
2021/01/29 00:57:24;;;;;;;21.95;9.45;;;;;;;-3.78;80.09;98691.44;103068;1112;64283;-69
2021/01/29 00:59:28;;;;;;;18.20;8.50;;;;;;;-3.68;80.66;98684.33;103105;1113;84013;-65
2021/01/29 01:01:33;;;;;;;21.17;8.47;;;;;;;-3.53;80.75;98687.36;103083;1111;73133;-65
2021/01/29 01:03:38;;;;;;;17.43;8.23;;;;;;;-3.43;81.12;98685.52;103050;1112;85183;-65
2021/01/29 01:05:44;;;;;;;16.60;7.77;;;;;;;-3.33;80.91;98686.34;103062;1113;78567;-68
2021/01/29 01:07:48;;;;;;;16.30;7.23;;;;;;;-3.20;80.41;98686.01;103074;1112;64236;-65
2021/01/29 01:09:53;;;;;;;15.80;8.30;;;;;;;-3.13;81.04;98687.91;103063;1112;83100;-66
2021/01/29 01:11:58;;;;;;;17.90;7.93;;;;;;;-3.03;80.98;98683.45;103110;1113;71442;-67
2021/01/29 01:14:04;;;;;;;15.90;7.23;;;;;;;-2.97;81.01;98682.03;103096;1113;85483;-67
2021/01/29 01:16:09;;;;;;;17.83;8.53;;;;;;;-2.92;81.31;98679.78;103051;1113;80011;-67
2021/01/29 01:18:14;;;;;;;16.95;7.40;;;;;;;-2.85;81.33;98678.20;103077;1113;64143;-66
2021/01/29 01:20:26;;;;;;;17.30;8.00;;;;;;;-2.81;80.69;98687.51;103034;1112;83955;-64
2021/01/29 01:22:34;;;;;;;15.63;7.80;;;;;;;-2.80;80.34;98686.51;103041;1111;72491;-66
2021/01/29 01:24:39;;;;;;;17.00;8.15;;;;;;;-2.70;80.88;98679.38;103057;1112;85017;-67
2021/01/29 01:26:49;;;;;;;15.70;7.10;;;;;;;-2.63;80.66;98679.60;103045;1112;78406;-70
2021/01/29 01:28:54;;;;;;;20.27;10.00;;;;;;;-2.56;80.42;98681.52;103057;1112;64169;-69
2021/01/29 01:31:01;;;;;;;17.83;9.40;;;;;;;-2.52;80.79;98688.16;103015;1112;81587;-69
2021/01/29 01:33:07;;;;;;;15.40;7.23;;;;;;;-2.53;80.91;98685.69;102995;1112;71457;-69
2021/01/29 01:35:14;;;;;;;16.37;8.37;;;;;;;-2.47;80.48;98688.54;103015;1112;84494;-65
2021/01/29 01:37:18;;;;;;;15.10;7.70;;;;;;;-2.41;80.80;98684.47;103010;1112;78236;-65
2021/01/29 01:39:24;;;;;;;15.50;7.40;;;;;;;-2.39;80.56;98679.88;103062;1112;64291;-64
2021/01/29 01:41:32;;;;;;;15.40;7.35;;;;;;;-2.38;80.68;98678.88;103028;1112;83133;-65
2021/01/29 01:43:37;;;;;;;13.33;6.93;;;;;;;-2.32;80.76;98678.30;103078;1113;71642;-63
2021/01/29 01:46:01;;;;;;;13.03;7.00;;;;;;;-2.28;80.22;98684.12;103058;1113;84054;-65
2021/01/29 01:48:11;;;;;;;12.73;6.40;;;;;;;-2.27;80.09;98685.77;103008;1112;77878;-65
2021/01/29 01:50:28;;;;;;;15.60;7.00;;;;;;;-2.23;80.39;98682.69;103042;1110;64188;-65
2021/01/29 01:52:37;;;;;;;15.00;7.20;;;;;;;-2.19;80.32;98689.31;103014;1112;83777;-65
2021/01/29 01:54:48;;;;;;;13.97;7.77;;;;;;;-2.14;80.15;98687.05;103020;1113;71668;-72
2021/01/29 01:56:57;;;;;;;14.77;7.67;;;;;;;-2.08;80.16;98682.97;103053;1111;85107;-70
2021/01/29 01:59:07;;;;;;;14.53;7.03;;;;;;;-2.07;80.49;98687.28;103039;1112;79619;-72
2021/01/29 02:01:12;;;;;;;14.90;6.75;;;;;;;-2.10;80.08;98683.13;102977;1112;64159;-70
2021/01/29 02:03:21;;;;;;;14.27;7.00;;;;;;;-2.08;80.22;98686.45;103024;1111;81157;-69
2021/01/29 02:05:30;;;;;;;13.90;6.50;;;;;;;-2.02;80.16;98685.02;103017;1112;71267;-65
2021/01/29 02:07:45;;;;;;;13.33;7.40;;;;;;;-2.04;80.26;98681.70;103054;1112;85577;-64
2021/01/29 02:09:51;;;;;;;14.73;7.70;;;;;;;-2.06;79.97;98679.19;102949;1112;79289;-70
2021/01/29 02:11:58;;;;;;;18.23;8.60;;;;;;;-2.02;80.27;98692.95;102987;1113;64169;-69
2021/01/29 02:14:03;;;;;;;14.23;6.93;;;;;;;-2.02;80.10;98683.20;103037;1110;82177;-71
2021/01/29 02:16:18;;;;;;;15.77;7.83;;;;;;;-2.04;80.29;98677.23;103027;1110;72727;-71
2021/01/29 02:18:34;;;;;;;13.87;6.83;;;;;;;-2.03;80.28;98678.05;103067;1110;84799;-72
2021/01/29 02:21:30;;;;;;;12.60;6.10;;;;;;;-1.98;80.31;98686.38;103047;1110;78175;-63
2021/01/29 02:24:07;;;;;;;;;;;;;;;-1.96;80.33;98685.25;103079;1110;64188;-64
2021/01/29 02:27:07;;;;;;;13.43;7.07;;;;;;;-1.95;80.18;98686.89;103024;1110;83328;-65
2021/01/29 02:30:00;;;;;;;15.90;8.00;;;;;;;-1.90;80.40;98683.80;103027;1110;72892;-72
2021/01/29 02:32:49;;;;;;;15.53;6.67;;;;;;;-1.88;80.49;98690.61;102895;1112;84667;-70
2021/01/29 02:35:33;;;;;;;12.40;6.60;;;;;;;-1.87;80.53;98691.44;103034;1109;77494;-64
2021/01/29 02:38:31;;;;;;;12.73;6.00;;;;;;;-1.86;79.78;98683.34;103025;1110;64162;-63
2021/01/29 02:40:41;;;;;;;13.00;6.63;;;;;;;-1.83;79.97;98685.68;103008;1110;83489;-64
2021/01/29 02:43:08;;;;;;;19.03;8.47;;;;;;;-1.81;80.12;98686.34;103024;1112;72573;-64
2021/01/29 02:45:26;;;;;;;15.03;7.10;;;;;;;-1.80;80.00;98680.08;102986;1110;85881;-63
2021/01/29 02:47:38;;;;;;;14.10;7.40;;;;;;;-1.81;79.97;98667.82;102993;1110;78626;-63
2021/01/29 02:50:04;;;;;;;12.10;6.03;;;;;;;-1.81;80.19;98673.12;103099;1110;64322;-71
2021/01/29 02:52:18;;;;;;;13.30;6.47;;;;;;;-1.77;79.87;98668.36;103002;1110;82507;-71
2021/01/29 02:54:35;;;;;;;16.00;8.20;;;;;;;-1.79;79.95;98660.55;103040;1110;71140;-71
2021/01/29 02:56:49;;;;;;;14.17;6.70;;;;;;;-1.79;80.17;98660.55;103053;1110;84984;-71
2021/01/29 02:59:04;;;;;;;17.23;8.53;;;;;;;-1.75;79.86;98660.25;103064;1110;79120;-73
2021/01/29 03:01:18;;;;;;;12.83;6.90;;;;;;;-1.82;79.97;98660.05;103018;1110;64229;-71
2021/01/29 03:03:30;;;;;;;12.57;6.17;;;;;;;-1.80;80.08;98660.72;103072;1109;82246;-70
2021/01/29 03:05:41;;;;;;;15.27;6.30;;;;;;;-1.82;80.30;98665.34;103110;1109;71352;-63
2021/01/29 03:07:56;;;;;;;12.30;6.53;;;;;;;-1.83;79.93;98651.28;103032;1110;85165;-63
2021/01/29 03:10:09;;;;;;;11.97;6.37;;;;;;;-1.86;79.87;98648.09;103021;1112;79727;-71
2021/01/29 03:12:20;;;;;;;13.45;4.95;;;;;;;-1.83;80.07;98653.92;103014;1110;64143;-70
2021/01/29 03:14:35;;;;;;;14.90;6.47;;;;;;;-1.78;79.86;98661.39;103015;1110;82526;-70
2021/01/29 03:16:48;;;;;;;12.43;5.93;;;;;;;-1.77;80.10;98659.58;103042;1110;73037;-69
2021/01/29 03:19:00;;;;;;;11.93;5.57;;;;;;;-1.77;80.02;98665.71;102999;1110;85924;-69
2021/01/29 03:21:11;;;;;;;11.10;5.93;;;;;;;-1.73;80.33;98658.30;103000;1110;78094;-70
2021/01/29 03:23:30;;;;;;;12.87;6.40;;;;;;;-1.71;80.05;98656.33;103064;1110;64312;-67
2021/01/29 03:25:44;;;;;;;16.87;7.37;;;;;;;-1.68;79.75;98656.02;103013;1110;83591;-63
2021/01/29 03:27:55;;;;;;;14.97;7.67;;;;;;;-1.70;79.62;98656.16;103057;1112;72357;-64
2021/01/29 03:30:07;;;;;;;12.73;6.13;;;;;;;-1.71;79.80;98654.52;103090;1112;84298;-65
2021/01/29 03:32:16;;;;;;;15.17;6.77;;;;;;;-1.69;79.95;98656.98;103087;1110;79767;-65
2021/01/29 03:34:30;;;;;;;12.33;7.00;;;;;;;-1.70;79.85;98653.50;103042;1112;64159;-62
2021/01/29 03:36:46;;;;;;;14.53;6.50;;;;;;;-1.63;79.87;98657.22;103070;1112;82939;-63
2021/01/29 03:39:01;;;;;;;13.07;6.13;;;;;;;-1.59;80.35;98645.31;103068;1103;71729;-63
2021/01/29 03:41:19;;;;;;;14.57;6.20;;;;;;;-1.60;80.13;98643.67;103017;1112;85132;-64
2021/01/29 03:43:30;;;;;;;12.07;6.00;;;;;;;-1.56;80.16;98638.88;103038;1112;78501;-64
2021/01/29 03:45:46;;;;;;;11.30;5.70;;;;;;;-1.54;80.31;98644.87;103081;1110;64402;-71
2021/01/29 03:48:03;;;;;;;10.97;6.30;;;;;;;-1.53;79.77;98643.86;103042;1110;83005;-69
2021/01/29 03:50:17;;;;;;;11.33;5.67;;;;;;;-1.56;79.59;98642.36;103054;1112;71797;-71
2021/01/29 03:52:41;;;;;;;12.53;5.93;;;;;;;-1.55;79.83;98648.48;103088;1110;84697;-71
2021/01/29 03:55:00;;;;;;;11.30;6.43;;;;;;;-1.56;80.33;98644.17;103052;1110;77536;-70
2021/01/29 03:57:19;;;;;;;10.67;4.60;;;;;;;-1.53;79.91;98646.51;103088;1110;64402;-71
2021/01/29 03:59:34;;;;;;;12.33;6.00;;;;;;;-1.51;79.68;98641.91;103072;1110;81562;-63
2021/01/29 04:01:53;;;;;;;9.73;5.07;;;;;;;-1.52;80.12;98646.37;103106;1110;71565;-64
2021/01/29 04:04:07;;;;;;;9.33;5.63;;;;;;;-1.55;79.63;98646.67;103058;1110;84522;-69
2021/01/29 04:06:19;;;;;;;11.83;5.90;;;;;;;-1.52;79.68;98650.83;103056;1110;77527;-69
2021/01/29 04:08:35;;;;;;;11.00;5.65;;;;;;;-1.49;79.65;98651.35;103091;1113;64162;-71
2021/01/29 04:10:41;;;;;;;12.55;5.80;;;;;;;-1.49;79.63;98642.58;103080;1110;84168;-64
2021/01/29 04:12:56;;;;;;;11.67;5.20;;;;;;;-1.48;80.04;98646.86;103038;1112;72846;-64
2021/01/29 04:15:12;;;;;;;9.67;5.13;;;;;;;-1.49;79.79;98651.35;103004;1109;84573;-70
2021/01/29 04:17:23;;;;;;;13.10;6.00;;;;;;;-1.47;79.89;98651.19;103026;1112;77709;-70
2021/01/29 04:19:36;;;;;;;12.50;5.97;;;;;;;-1.48;79.64;98650.34;103067;1110;64162;-65
2021/01/29 04:21:47;;;;;;;10.10;5.65;;;;;;;-1.46;79.75;98650.20;103118;1110;83053;-66
2021/01/29 04:24:00;;;;;;;9.00;5.77;;;;;;;-1.48;79.85;98646.86;103073;1112;72666;-63
2021/01/29 04:26:12;;;;;;;13.70;6.13;;;;;;;-1.44;79.87;98649.06;103064;1111;84467;-65
2021/01/29 04:28:20;;;;;;;16.67;7.50;;;;;;;-1.39;79.66;98651.23;103009;1112;78318;-65
2021/01/29 04:30:31;;;;;;;14.50;6.33;;;;;;;-1.45;79.92;98643.91;103037;1112;64168;-65
2021/01/29 04:32:41;;;;;;;12.67;6.87;;;;;;;-1.40;79.67;98636.34;103036;1109;83650;-64
2021/01/29 04:34:52;;;;;;;12.17;5.90;;;;;;;-1.40;79.63;98639.00;102996;1110;72099;-64
2021/01/29 04:37:03;;;;;;;9.97;5.80;;;;;;;-1.41;79.65;98639.97;103048;1111;84947;-64
2021/01/29 04:39:14;;;;;;;9.77;5.17;;;;;;;-1.40;80.06;98633.70;102977;1110;78752;-69
2021/01/29 04:41:39;;;;;;;12.05;5.30;;;;;;;-1.35;79.92;98642.00;103025;1111;64137;-70
2021/01/29 04:43:59;;;;;;;9.57;5.30;;;;;;;-1.36;79.61;98649.11;103035;1110;83314;-67
2021/01/29 04:46:30;;;;;;;9.27;5.23;;;;;;;-1.31;79.51;98640.68;103090;1110;71889;-69
2021/01/29 04:48:41;;;;;;;14.10;6.40;;;;;;;-1.31;80.14;98638.87;103009;1110;84668;-67
2021/01/29 04:51:29;;;;;;;13.20;6.90;;;;;;;-1.28;79.58;98629.77;103009;1113;78156;-70
2021/01/29 04:54:14;;;;;;;12.03;6.27;;;;;;;-1.24;79.52;98636.44;103031;1110;64184;-64
2021/01/29 04:57:16;;;;;;;11.40;5.87;;;;;;;-1.29;79.84;98642.18;103013;1112;84133;-64
2021/01/29 04:59:45;;;;;;;10.30;6.50;;;;;;;-1.28;79.43;98638.55;102744;1113;73140;-66
2021/01/29 05:02:41;;;;;;;9.17;4.70;;;;;;;-1.24;79.50;98636.44;102819;1113;85329;-64
2021/01/29 05:05:32;;;;;;;7.17;4.37;;;;;;;-1.26;79.76;98641.03;102920;1110;77540;-65
2021/01/29 05:08:03;;;;;;;8.35;4.30;;;;;;;-1.24;79.67;98634.59;102993;1112;64278;-66
2021/01/29 05:10:56;;;;;;;11.20;4.70;;;;;;;-1.22;79.55;98622.04;103023;1110;84279;-66
2021/01/29 05:13:53;;;;;;;7.43;3.83;;;;;;;-1.25;79.79;98629.46;103091;1110;71861;-66
2021/01/29 05:16:49;;;;;;;8.97;4.00;;;;;;;-1.27;79.77;98640.23;103083;1112;85945;-67
2021/01/29 05:19:56;;;;;;;7.13;4.60;;;;;;;-1.23;79.93;98635.42;103087;1112;79008;-65
2021/01/29 05:22:38;;;;;;;7.80;4.37;;;;;;;-1.32;79.91;98639.04;102821;1109;64198;-64
2021/01/29 05:25:38;;;;;;;8.83;4.07;;;;;;;-1.33;79.58;98643.50;103045;1110;82093;-68
2021/01/29 05:28:30;;;;;;;6.20;3.50;;;;;;;-1.35;79.49;98648.13;103052;1112;72370;-70
2021/01/29 05:31:05;;;;;;;7.37;3.87;;;;;;;-1.33;79.66;98632.07;103098;1112;86293;-64
2021/01/29 05:33:36;;;;;;;7.20;4.13;;;;;;;-1.33;79.68;98634.72;103000;1113;77759;-64
2021/01/29 05:36:19;;;;;;;6.87;4.17;;;;;;;-1.31;79.90;98640.68;103027;1112;64165;-63
2021/01/29 05:38:55;;;;;;;6.10;3.93;;;;;;;-1.30;79.52;98642.35;103027;1110;83410;-66
2021/01/29 05:42:03;;;;;;;5.77;3.47;;;;;;;-1.29;79.58;98651.97;103034;1112;72738;-67
2021/01/29 05:44:47;;;;;;;6.37;3.77;;;;;;;-1.25;79.70;98655.95;103044;1106;84485;-73
2021/01/29 05:47:11;;;;;;;9.23;4.75;;;;;;;-1.23;79.52;98640.72;102982;1110;77766;-73
2021/01/29 05:49:22;;;;;;;5.93;3.53;;;;;;;-1.25;79.79;98642.70;103092;1110;64271;-72
2021/01/29 05:51:49;;;;;;;6.30;3.73;;;;;;;-1.26;79.95;98639.22;103111;1110;82845;-75
2021/01/29 05:54:34;;;;;;;6.17;3.27;;;;;;;-1.24;79.52;98639.08;103089;1110;72509;-67
2021/01/29 05:56:58;;;;;;;8.53;3.87;;;;;;;-1.26;79.50;98641.87;103159;1110;84597;-66
2021/01/29 05:59:48;;;;;;;7.37;4.10;;;;;;;-1.24;80.14;98652.33;103045;1112;78037;-70
2021/01/29 06:02:25;;;;;;;7.50;4.07;;;;;;;-1.17;79.91;98652.50;103020;1112;64236;-70
2021/01/29 06:05:16;;;;;;;7.43;3.83;;;;;;;-1.21;80.00;98649.36;103089;1112;82229;-64
2021/01/29 06:08:10;;;;;;;7.97;5.10;;;;;;;-1.20;80.16;98641.24;103006;1113;71059;-64
2021/01/29 06:10:47;;;;;;;6.40;3.93;;;;;;;-1.16;79.62;98651.53;102761;1113;85076;-65
2021/01/29 06:13:26;;;;;;;7.87;5.10;;;;;;;-1.18;79.58;98646.38;102775;1113;79000;-65
2021/01/29 06:15:58;;;;;;;6.83;3.83;;;;;;;-1.14;79.74;98653.03;103016;1112;64191;-65
2021/01/29 06:18:41;;;;;;;8.03;4.77;;;;;;;-1.13;79.81;98646.75;103046;1110;81685;-66
2021/01/29 06:21:31;;;;;;;5.43;3.10;;;;;;;-1.13;79.50;98652.05;103031;1112;71078;-71
2021/01/29 06:24:13;;;;;;;10.43;4.93;;;;;;;-1.12;79.86;98652.85;103026;1110;84766;-63
2021/01/29 06:27:14;;;;;;;5.13;3.10;;;;;;;-1.14;80.21;98655.67;103037;1110;79532;-66
2021/01/29 06:29:34;;;;;;;5.43;3.10;;;;;;;-1.11;79.69;98659.83;103089;1110;64341;-71
2021/01/29 06:32:23;;;;;;;5.63;3.33;;;;;;;-1.11;80.01;98660.66;103003;1110;82419;-71
2021/01/29 06:35:04;;;;;;;6.03;3.60;;;;;;;-1.07;80.02;98656.69;103092;1110;71217;-66
2021/01/29 06:37:25;;;;;;;8.67;3.87;;;;;;;-1.08;80.10;98660.34;103138;1110;84609;-65
2021/01/29 06:39:47;;;;;;;5.87;3.83;;;;;;;-1.07;80.27;98655.88;103070;1110;77391;-65
2021/01/29 06:42:13;;;;;;;6.03;4.00;;;;;;;-1.04;80.08;98653.73;103039;1112;64107;-65
2021/01/29 06:45:04;;;;;;;5.90;3.50;;;;;;;-1.06;80.18;98661.02;103016;1112;81549;-66
2021/01/29 06:47:28;;;;;;;7.83;3.83;;;;;;;-1.02;80.34;98659.72;102833;1112;72587;-66
2021/01/29 06:50:25;;;;;;;7.73;3.58;;;;;;;-1.00;80.04;98664.84;103023;1106;84712;-66
2021/01/29 06:53:22;;;;;;;8.15;4.10;;;;;;;-1.01;79.84;98656.06;102954;1112;79504;-67
2021/01/29 06:56:10;;;;;;;8.20;4.17;;;;;;;-0.99;79.88;98656.72;103053;1113;64259;-72
2021/01/29 06:58:51;;;;;;;5.70;3.30;;;;;;;-0.93;79.51;98661.39;102894;1112;82497;-71
2021/01/29 07:01:33;;;;;;;8.43;4.37;;;;;;;-0.94;79.62;98667.70;103037;1112;72777;-66
2021/01/29 07:04:35;;;;;;;7.57;4.60;;;;;;;-0.94;79.56;98659.75;103007;1111;84790;-70
2021/01/29 07:07:02;;;;;;;6.93;3.57;;;;;;;-0.90;79.96;98653.13;103022;1109;77217;-70
2021/01/29 07:09:19;;;;;;;6.63;3.63;;;;;;;-0.94;80.23;98659.75;103000;1109;64944;-65
2021/01/29 07:12:22;;;;;;;6.00;4.10;;;;;;;-0.90;79.83;98666.38;103020;1112;81884;-65
2021/01/29 07:14:54;;;;;;;7.80;4.37;;;;;;;-0.87;80.03;98659.92;103006;1112;72118;-66
2021/01/29 07:17:11;;;;;;;9.97;4.93;;;;;;;-0.85;79.84;98656.13;103047;1112;84467;-64
2021/01/29 07:19:44;;;;;;;7.45;4.70;;;;;;;-0.84;79.94;98656.96;102962;1112;77905;-71
2021/01/29 07:22:50;;;;;;;7.80;4.33;;;;;;;-0.79;79.77;98654.66;103018;1110;64185;-72
2021/01/29 07:25:07;;;;;;;7.90;4.80;;;;;;;-0.86;80.11;98654.48;102900;1112;84236;-68
2021/01/29 07:27:25;;;;;;;8.67;3.80;;;;;;;-0.80;79.86;98648.55;103027;1110;71489;-66
2021/01/29 07:29:49;;;;;;;7.25;3.75;;;;;;;-0.76;79.91;98639.27;102969;1111;85022;-71
2021/01/29 07:32:05;;;;;;;;;;;;;;;-0.76;79.48;98647.22;103048;1112;78499;-73
2021/01/29 07:34:26;;;;;;;10.47;5.50;;;;;;;-0.68;79.91;98635.80;103071;1112;64328;-71
2021/01/29 07:36:56;;;;;;;8.53;5.17;;;;;;;-0.62;79.65;98636.00;103015;1112;82674;-72
2021/01/29 07:39:48;;;;;;;5.73;4.00;;;;;;;-0.61;79.53;98632.37;103035;1110;71560;-72
2021/01/29 07:42:11;;;;;;;7.73;4.47;;;;;;;-0.54;79.31;98619.27;103096;1110;84142;-71
2021/01/29 07:44:31;;;;;;;6.80;3.87;;;;;;;-0.49;79.71;98616.95;103054;1109;79133;-73
2021/01/29 07:46:58;;;;;;;8.07;5.23;;;;;;;-0.50;79.55;98617.97;103062;1110;64297;-71
2021/01/29 07:49:24;;;;;;;8.80;5.00;;;;;;;-0.51;79.48;98620.77;103034;1110;81845;-71
2021/01/29 07:51:45;;;;;;;7.17;4.33;;;;;;;-0.45;79.27;98614.81;103130;1109;70722;-71
2021/01/29 07:54:54;;;;;;;8.50;4.50;;;;;;;-0.42;79.53;98615.33;103105;1112;83602;-73
2021/01/29 07:57:17;;;;;;;8.77;4.83;;;;;;;-0.37;79.30;98631.58;103034;1112;79099;-71
2021/01/29 07:59:41;;;;;;;9.53;5.40;;;;;;;-0.33;79.25;98635.54;103060;1106;64169;-66
2021/01/29 08:01:56;;;;;;;8.30;4.70;;;;;;;-0.33;78.86;98624.93;103033;1109;82104;-69
2021/01/29 08:04:24;;;;;;;9.63;5.40;;;;;;;-0.29;79.18;98622.79;103108;1112;70883;-68
2021/01/29 08:06:32;;;;;;;8.03;4.83;;;;;;;-0.24;79.14;98618.65;103061;1112;84234;-70
2021/01/29 08:08:47;;;;;;;8.60;5.47;;;;;;;-0.23;78.85;98612.36;103015;1110;79622;-68
2021/01/29 08:10:59;;;;;;;9.33;4.80;;;;;;;-0.22;79.10;98618.50;103060;1110;64265;-68
2021/01/29 08:13:17;;;;;;;10.67;5.33;;;;;;;-0.15;79.02;98619.48;103048;1110;83808;-69
2021/01/29 08:15:36;;;;;;;9.13;5.17;;;;;;;-0.21;79.21;98620.14;103084;1110;71409;-66
2021/01/29 08:18:26;;;;;;;11.35;5.65;;;;;;;-0.15;79.13;98630.10;103004;1110;84859;-69
2021/01/29 08:20:53;;;;;;;9.87;6.40;;;;;;;-0.10;78.83;98635.73;102976;1110;78967;-78
2021/01/29 08:23:09;;;;;;;10.70;6.63;;;;;;;-0.10;78.56;98631.27;103043;1110;64313;-72
2021/01/29 08:26:05;;;;;;;22.03;13.73;;;;;;;-0.09;78.99;98634.75;103078;1110;81788;-70
2021/01/29 08:29:12;;;;;;;17.03;9.40;;;;;;;-0.10;78.56;98635.73;102825;1112;72043;-68
2021/01/29 08:32:06;;;;;;;10.20;5.97;;;;;;;-0.04;78.77;98630.61;103024;1110;84824;-72
2021/01/29 08:34:48;;;;;;;8.20;5.47;;;;;;;0.00;78.61;98626.61;102907;1112;78312;-72
2021/01/29 08:37:33;;;;;;;9.90;5.70;;;;;;;0.03;78.35;98637.92;103024;1109;64377;-72
2021/01/29 08:39:51;;;;;;;8.50;5.55;;;;;;;0.10;78.25;98636.25;103076;1106;82966;-73
2021/01/29 08:42:10;;;;;;;11.53;6.93;;;;;;;0.07;78.54;98629.45;103081;1112;72683;-71
2021/01/29 08:44:31;;;;;;;8.97;5.70;;;;;;;0.09;78.23;98630.10;103056;1112;84589;-72
2021/01/29 08:46:54;;;;;;;115.63;62.77;;;;;;;0.11;78.45;98633.41;103034;1110;78429;-70
2021/01/29 08:49:23;;;;;;;12.47;6.60;;;;;;;0.09;78.11;98632.75;103078;1110;64191;-70
2021/01/29 08:51:38;;;;;;;8.70;5.27;;;;;;;0.08;78.01;98633.77;103061;1111;83673;-72
2021/01/29 08:54:36;;;;;;;7.90;5.27;;;;;;;0.11;77.96;98633.41;103057;1112;70915;-66
2021/01/29 08:56:56;;;;;;;9.30;5.00;;;;;;;0.14;78.18;98633.08;102798;1112;85071;-67
2021/01/29 08:59:06;;;;;;;8.17;4.70;;;;;;;0.19;78.17;98628.13;102810;1113;78555;-72
2021/01/29 09:01:21;;;;;;;10.03;4.80;;;;;;;0.13;78.54;98631.44;102815;1112;64137;-72
2021/01/29 09:03:38;;;;;;;8.07;4.40;;;;;;;0.12;78.41;98629.77;102775;1113;82975;-73
2021/01/29 09:05:47;;;;;;;7.33;4.70;;;;;;;0.14;78.15;98626.97;102895;1112;70825;-71
2021/01/29 09:08:00;;;;;;;10.67;5.37;;;;;;;0.18;77.70;98626.45;102770;1112;84415;-74
2021/01/29 09:10:28;;;;;;;9.10;5.50;;;;;;;0.20;77.88;98632.42;102762;1113;78384;-69
2021/01/29 09:12:37;;;;;;;6.53;4.47;;;;;;;0.25;77.94;98624.78;102990;1113;64147;-67
2021/01/29 09:14:52;;;;;;;10.27;6.13;;;;;;;0.29;77.93;98638.55;103140;1112;83328;-73
2021/01/29 09:17:10;;;;;;;8.70;5.23;;;;;;;0.27;78.02;98630.77;103028;1110;72284;-73
2021/01/29 09:19:18;;;;;;;9.83;5.80;;;;;;;0.31;77.58;98629.42;103103;1110;85776;-69
2021/01/29 09:21:32;;;;;;;11.33;5.40;;;;;;;0.35;77.64;98629.92;103006;1110;78124;-67
2021/01/29 09:23:49;;;;;;;11.53;6.55;;;;;;;0.38;77.61;98626.94;103063;1112;64169;-68
2021/01/29 09:26:03;;;;;;;9.80;5.50;;;;;;;0.38;77.89;98626.94;103108;1112;83413;-67
2021/01/29 09:28:11;;;;;;;8.93;5.03;;;;;;;0.36;77.64;98621.78;103084;1110;71615;-65
2021/01/29 09:30:27;;;;;;;12.77;6.87;;;;;;;0.39;77.58;98626.76;103031;1112;84505;-72
2021/01/29 09:32:52;;;;;;;11.63;6.80;;;;;;;0.46;77.23;98624.27;103022;1112;78895;-72
2021/01/29 09:34:58;;;;;;;10.40;7.00;;;;;;;0.47;77.45;98624.08;103073;1110;64419;-72
2021/01/29 09:37:13;;;;;;;11.47;6.47;;;;;;;0.50;77.49;98629.06;103065;1112;83840;-73
2021/01/29 09:39:26;;;;;;;12.03;7.20;;;;;;;0.52;77.36;98628.91;103081;1112;71908;-63
2021/01/29 09:41:36;;;;;;;8.43;5.58;;;;;;;0.55;77.38;98629.38;103111;1110;84437;-67
2021/01/29 09:43:53;;;;;;;9.63;5.70;;;;;;;0.56;77.21;98631.05;103037;1110;78976;-68
2021/01/29 09:46:00;;;;;;;8.63;5.13;;;;;;;0.56;77.20;98631.05;103062;1112;64022;-66
2021/01/29 09:48:14;;;;;;;8.30;6.37;;;;;;;0.53;76.73;98628.73;103028;1110;82799;-68
2021/01/29 09:50:23;;;;;;;11.00;5.80;;;;;;;0.48;76.92;98630.23;103075;1112;70668;-68
2021/01/29 09:52:37;;;;;;;9.97;5.63;;;;;;;0.47;76.67;98624.08;103032;1112;84482;-67
2021/01/29 09:54:57;;;;;;;6.60;4.80;;;;;;;0.45;76.99;98628.74;103056;1112;80831;-74
2021/01/29 09:57:09;;;;;;;7.33;5.20;;;;;;;0.52;77.26;98632.37;103096;1110;64269;-75
2021/01/29 09:59:55;;;;;;;9.27;6.03;;;;;;;0.43;77.11;98632.57;103043;1110;82515;-68
2021/01/29 10:02:13;;;;;;;11.60;7.47;;;;;;;0.47;76.81;98629.40;102944;1112;71561;-69
2021/01/29 10:04:29;;;;;;;6.85;5.00;;;;;;;0.39;76.92;98625.92;103043;1110;84412;-71
2021/01/29 10:06:44;;;;;;;10.07;5.57;;;;;;;0.40;77.11;98625.77;103080;1110;78714;-72
2021/01/29 10:09:01;;;;;;;7.35;5.00;;;;;;;0.41;77.08;98627.41;103043;1112;64232;-73
2021/01/29 10:11:16;;;;;;;8.60;5.00;;;;;;;0.36;77.04;98635.05;103081;1112;83880;-71
2021/01/29 10:13:40;;;;;;;8.37;5.30;;;;;;;0.37;77.04;98631.41;103051;1112;72000;-70
2021/01/29 10:16:09;;;;;;;9.07;5.53;;;;;;;0.41;77.06;98631.92;103089;1112;83820;-70
2021/01/29 10:18:18;;;;;;;10.23;5.27;;;;;;;0.39;76.96;98637.38;103057;1110;79362;-70
2021/01/29 10:20:28;;;;;;;10.30;5.97;;;;;;;0.35;77.06;98628.11;103093;1110;64230;-68
2021/01/29 10:22:54;;;;;;;8.40;5.15;;;;;;;0.30;76.60;98627.75;103032;1110;83996;-69
2021/01/29 10:25:19;;;;;;;9.63;5.60;;;;;;;0.32;76.66;98630.26;103047;1112;72257;-62
2021/01/29 10:27:36;;;;;;;7.70;5.43;;;;;;;0.32;76.79;98625.78;103039;1112;84412;-72
2021/01/29 10:29:46;;;;;;;8.45;5.45;;;;;;;0.32;76.78;98627.60;103070;1113;78828;-69
2021/01/29 10:32:04;;;;;;;8.57;6.03;;;;;;;0.32;76.95;98630.26;103054;1109;64191;-68
2021/01/29 10:34:25;;;;;;;9.57;5.47;;;;;;;0.36;76.74;98627.09;103028;1109;81473;-70
2021/01/29 10:36:36;;;;;;;9.15;5.90;;;;;;;0.43;76.62;98617.47;103063;1110;72475;-69
2021/01/29 10:38:48;;;;;;;8.85;5.60;;;;;;;0.47;76.39;98624.08;103062;1113;84062;-70
2021/01/29 10:41:10;;;;;;;10.10;6.13;;;;;;;0.47;76.65;98624.08;103029;1110;79327;-69
2021/01/29 10:43:31;;;;;;;8.00;5.37;;;;;;;0.48;76.73;98632.89;103048;1112;64137;-70
2021/01/29 10:45:49;;;;;;;9.03;5.90;;;;;;;0.46;76.62;98627.76;103059;1110;83001;-68
2021/01/29 10:48:15;;;;;;;8.10;6.10;;;;;;;0.37;76.55;98627.92;103086;1112;71571;-69
2021/01/29 10:50:26;;;;;;;8.13;6.20;;;;;;;0.36;76.22;98624.44;103030;1109;84620;-76
2021/01/29 10:52:41;;;;;;;7.83;5.47;;;;;;;0.39;76.77;98626.76;103048;1112;78819;-73
2021/01/29 10:54:46;;;;;;;9.73;5.83;;;;;;;0.34;76.40;98629.09;103196;1109;64277;-78